PWSweather.com
Personal Weather Stations
Station Observations

Acton, CA 93510

Lat: 34.47703, Lon: -118.17483

Elevation: 2900

Station Type: Davis Vantage Pro 2

http://www.actonastro.com/weather/current.php

High Low Average
Temperature 87.0°F30.6°C 58.2°F14.6°C 73.3°F22.9°C
Dew Point 54.5°F12.5°C 30.0°F-1.1°C 44.7°F7.1°C
Winds 19.0 mph 30.6 kmh Calm Calm 7.0 mph SSW11.3 kmh SSW
Wind Gusts 24.0 mph38.6 kmh -- 11.0 mph17.7 kmh
Humidity 80% 15% 39%
Pressure 29.60 in1002.4 mb 29.52 in999.7 mb -
Precipitation 0.00 in0.0 mm - -
Hour Temp Dew Point Humidity Winds Wind Gusts Pressure Precip Precip Rate Daily Precip Total
12:00 AM 68.8°F20.4°C 49.9°F9.9°C 51% Calm Calm -- 29.54 in1000.3 mb 0.00 in0.0 mm 0.00 in0.0 mm 0.00 in0.0 mm
12:05 AM 70.4°F21.3°C 49.8°F9.9°C 48% Calm Calm -- 29.54 in1000.3 mb 0.00 in0.0 mm 0.00 in0.0 mm 0.00 in0.0 mm
12:10 AM 70.1°F21.2°C 50.0°F10.0°C 49% Calm Calm -- 29.54 in1000.3 mb 0.00 in0.0 mm 0.00 in0.0 mm 0.00 in0.0 mm
12:15 AM 69.9°F21.1°C 49.9°F9.9°C 49% Calm Calm -- 29.53 in1000.0 mb 0.00 in0.0 mm 0.00 in0.0 mm 0.00 in0.0 mm
12:20 AM 69.6°F20.9°C 49.0°F9.4°C 48% Calm Calm -- 29.53 in1000.0 mb 0.00 in0.0 mm 0.00 in0.0 mm 0.00 in0.0 mm
12:25 AM 69.4°F20.8°C 48.8°F9.3°C 48% Calm Calm -- 29.53 in1000.0 mb 0.00 in0.0 mm 0.00 in0.0 mm 0.00 in0.0 mm
12:30 AM 69.1°F20.6°C 48.0°F8.9°C 47% Calm Calm -- 29.52 in999.7 mb 0.00 in0.0 mm 0.00 in0.0 mm 0.00 in0.0 mm
12:35 AM 68.8°F20.4°C 48.3°F9.1°C 48% Calm Calm -- 29.52 in999.7 mb 0.00 in0.0 mm 0.00 in0.0 mm 0.00 in0.0 mm
12:40 AM 68.6°F20.3°C 49.2°F9.6°C 50% 2.0 mph NNE3.2 kmh NNE 2.0 mph3.2 kmh 29.52 in999.7 mb 0.00 in0.0 mm 0.00 in0.0 mm 0.00 in0.0 mm
12:45 AM 68.4°F20.2°C 48.5°F9.2°C 49% Calm Calm -- 29.53 in1000.0 mb 0.00 in0.0 mm 0.00 in0.0 mm 0.00 in0.0 mm
12:50 AM 68.1°F20.1°C 49.3°F9.6°C 51% Calm Calm -- 29.53 in1000.0 mb 0.00 in0.0 mm 0.00 in0.0 mm 0.00 in0.0 mm
12:55 AM 67.9°F19.9°C 49.1°F9.5°C 51% 2.0 mph NNE3.2 kmh NNE 2.0 mph3.2 kmh 29.53 in1000.0 mb 0.00 in0.0 mm 0.00 in0.0 mm 0.00 in0.0 mm
01:00 AM 67.6°F19.8°C 48.3°F9.1°C 50% Calm Calm 2.0 mph3.2 kmh 29.53 in1000.0 mb 0.00 in0.0 mm 0.00 in0.0 mm 0.00 in0.0 mm
01:05 AM 67.4°F19.7°C 48.1°F8.9°C 50% 1.0 mph NNE1.6 kmh NNE 2.0 mph3.2 kmh 29.53 in1000.0 mb 0.00 in0.0 mm 0.00 in0.0 mm 0.00 in0.0 mm
01:10 AM 67.2°F19.6°C 46.8°F8.2°C 48% 2.0 mph NNE3.2 kmh NNE 2.0 mph3.2 kmh 29.53 in1000.0 mb 0.00 in0.0 mm 0.00 in0.0 mm 0.00 in0.0 mm
01:15 AM 67.0°F19.4°C 44.9°F7.2°C 45% Calm Calm 2.0 mph3.2 kmh 29.52 in999.7 mb 0.00 in0.0 mm 0.00 in0.0 mm 0.00 in0.0 mm
01:20 AM 66.9°F19.4°C 44.9°F7.2°C 45% Calm Calm -- 29.52 in999.7 mb 0.00 in0.0 mm 0.00 in0.0 mm 0.00 in0.0 mm
01:25 AM 66.7°F19.3°C 45.3°F7.4°C 46% Calm Calm -- 29.52 in999.7 mb 0.00 in0.0 mm 0.00 in0.0 mm 0.00 in0.0 mm
01:30 AM 66.5°F19.2°C 45.1°F7.3°C 46% Calm Calm -- 29.52 in999.7 mb 0.00 in0.0 mm 0.00 in0.0 mm 0.00 in0.0 mm
01:35 AM 66.4°F19.1°C 44.4°F6.9°C 45% Calm Calm -- 29.52 in999.7 mb 0.00 in0.0 mm 0.00 in0.0 mm 0.00 in0.0 mm
01:40 AM 66.2°F19.0°C 44.2°F6.8°C 45% Calm Calm -- 29.52 in999.7 mb 0.00 in0.0 mm 0.00 in0.0 mm 0.00 in0.0 mm
01:45 AM 65.9°F18.8°C 46.2°F7.9°C 49% Calm Calm -- 29.52 in999.7 mb 0.00 in0.0 mm 0.00 in0.0 mm 0.00 in0.0 mm
01:50 AM 65.5°F18.6°C 43.0°F6.1°C 44% 2.0 mph NNE3.2 kmh NNE 4.0 mph6.4 kmh 29.52 in999.7 mb 0.00 in0.0 mm 0.00 in0.0 mm 0.00 in0.0 mm
01:55 AM 65.8°F18.8°C 37.4°F3.0°C 35% 4.0 mph NE6.4 kmh NE 5.0 mph8.0 kmh 29.52 in999.7 mb 0.00 in0.0 mm 0.00 in0.0 mm 0.00 in0.0 mm
02:00 AM 66.0°F18.9°C 36.1°F2.3°C 33% Calm Calm -- 29.53 in1000.0 mb 0.00 in0.0 mm 0.00 in0.0 mm 0.00 in0.0 mm
02:05 AM 65.9°F18.8°C 36.0°F2.2°C 33% Calm Calm -- 29.53 in1000.0 mb 0.00 in0.0 mm 0.00 in0.0 mm 0.00 in0.0 mm
02:10 AM 65.8°F18.8°C 36.6°F2.6°C 34% Calm Calm -- 29.53 in1000.0 mb 0.00 in0.0 mm 0.00 in0.0 mm 0.00 in0.0 mm
02:15 AM 65.7°F18.7°C 38.0°F3.3°C 36% Calm Calm -- 29.52 in999.7 mb 0.00 in0.0 mm 0.00 in0.0 mm 0.00 in0.0 mm
02:20 AM 65.5°F18.6°C 41.8°F5.4°C 42% Calm Calm -- 29.52 in999.7 mb 0.00 in0.0 mm 0.00 in0.0 mm 0.00 in0.0 mm
02:25 AM 65.3°F18.5°C 42.2°F5.7°C 43% Calm Calm -- 29.52 in999.7 mb 0.00 in0.0 mm 0.00 in0.0 mm 0.00 in0.0 mm
02:30 AM 65.1°F18.4°C 42.6°F5.9°C 44% Calm Calm -- 29.52 in999.7 mb 0.00 in0.0 mm 0.00 in0.0 mm 0.00 in0.0 mm
02:35 AM 64.8°F18.2°C 42.4°F5.8°C 44% Calm Calm -- 29.52 in999.7 mb 0.00 in0.0 mm 0.00 in0.0 mm 0.00 in0.0 mm
02:40 AM 64.6°F18.1°C 42.8°F6.0°C 45% Calm Calm -- 29.52 in999.7 mb 0.00 in0.0 mm 0.00 in0.0 mm 0.00 in0.0 mm
02:45 AM 64.1°F17.8°C 42.3°F5.7°C 45% Calm Calm -- 29.52 in999.7 mb 0.00 in0.0 mm 0.00 in0.0 mm 0.00 in0.0 mm
02:50 AM 63.7°F17.6°C 40.2°F4.6°C 42% Calm Calm -- 29.52 in999.7 mb 0.00 in0.0 mm 0.00 in0.0 mm 0.00 in0.0 mm
02:55 AM 63.3°F17.4°C 41.6°F5.3°C 45% Calm Calm -- 29.52 in999.7 mb 0.00 in0.0 mm 0.00 in0.0 mm 0.00 in0.0 mm
03:00 AM 63.3°F17.4°C 39.8°F4.3°C 42% Calm Calm -- 29.53 in1000.0 mb 0.00 in0.0 mm 0.00 in0.0 mm 0.00 in0.0 mm
03:05 AM 63.0°F17.2°C 38.3°F3.5°C 40% Calm Calm -- 29.53 in1000.0 mb 0.00 in0.0 mm 0.00 in0.0 mm 0.00 in0.0 mm
03:10 AM 62.7°F17.1°C 35.4°F1.9°C 36% 1.0 mph NE1.6 kmh NE 4.0 mph6.4 kmh 29.53 in1000.0 mb 0.00 in0.0 mm 0.00 in0.0 mm 0.00 in0.0 mm
03:15 AM 62.6°F17.0°C 35.3°F1.8°C 36% Calm Calm -- 29.53 in1000.0 mb 0.00 in0.0 mm 0.00 in0.0 mm 0.00 in0.0 mm
03:20 AM 62.6°F17.0°C 36.0°F2.2°C 37% Calm Calm -- 29.53 in1000.0 mb 0.00 in0.0 mm 0.00 in0.0 mm 0.00 in0.0 mm
03:25 AM 62.4°F16.9°C 35.8°F2.1°C 37% Calm Calm -- 29.53 in1000.0 mb 0.00 in0.0 mm 0.00 in0.0 mm 0.00 in0.0 mm
03:30 AM 62.3°F16.8°C 35.7°F2.1°C 37% Calm Calm -- 29.54 in1000.3 mb 0.00 in0.0 mm 0.00 in0.0 mm 0.00 in0.0 mm
03:35 AM 62.1°F16.7°C 36.8°F2.7°C 39% 2.0 mph NE3.2 kmh NE 2.0 mph3.2 kmh 29.54 in1000.3 mb 0.00 in0.0 mm 0.00 in0.0 mm 0.00 in0.0 mm
03:40 AM 61.8°F16.6°C 37.2°F2.9°C 40% 3.0 mph NE4.8 kmh NE 3.0 mph4.8 kmh 29.54 in1000.3 mb 0.00 in0.0 mm 0.00 in0.0 mm 0.00 in0.0 mm
03:45 AM 61.5°F16.4°C 37.0°F2.8°C 40% Calm Calm -- 29.54 in1000.3 mb 0.00 in0.0 mm 0.00 in0.0 mm 0.00 in0.0 mm
03:50 AM 61.3°F16.3°C 37.4°F3.0°C 41% Calm Calm -- 29.54 in1000.3 mb 0.00 in0.0 mm 0.00 in0.0 mm 0.00 in0.0 mm
03:55 AM 61.1°F16.2°C 38.4°F3.6°C 43% Calm Calm -- 29.54 in1000.3 mb 0.00 in0.0 mm 0.00 in0.0 mm 0.00 in0.0 mm
04:00 AM 61.5°F16.4°C 41.6°F5.3°C 48% Calm Calm -- 29.54 in1000.3 mb 0.00 in0.0 mm 0.00 in0.0 mm 0.00 in0.0 mm
04:05 AM 61.7°F16.5°C 39.6°F4.2°C 44% Calm Calm -- 29.54 in1000.3 mb 0.00 in0.0 mm 0.00 in0.0 mm 0.00 in0.0 mm
04:10 AM 61.7°F16.5°C 39.6°F4.2°C 44% Calm Calm -- 29.54 in1000.3 mb 0.00 in0.0 mm 0.00 in0.0 mm 0.00 in0.0 mm
04:15 AM 61.5°F16.4°C 38.8°F3.8°C 43% Calm Calm -- 29.54 in1000.3 mb 0.00 in0.0 mm 0.00 in0.0 mm 0.00 in0.0 mm
04:20 AM 61.4°F16.3°C 38.7°F3.7°C 43% Calm Calm -- 29.54 in1000.3 mb 0.00 in0.0 mm 0.00 in0.0 mm 0.00 in0.0 mm
04:25 AM 61.2°F16.2°C 36.0°F2.2°C 39% 2.0 mph NE3.2 kmh NE 4.0 mph6.4 kmh 29.54 in1000.3 mb 0.00 in0.0 mm 0.00 in0.0 mm 0.00 in0.0 mm
04:30 AM 60.8°F16.0°C 35.0°F1.7°C 38% 4.0 mph NE6.4 kmh NE 6.0 mph9.7 kmh 29.55 in1000.7 mb 0.00 in0.0 mm 0.00 in0.0 mm 0.00 in0.0 mm
04:35 AM 60.3°F15.7°C 34.6°F1.4°C 38% 1.0 mph NE1.6 kmh NE 6.0 mph9.7 kmh 29.55 in1000.7 mb 0.00 in0.0 mm 0.00 in0.0 mm 0.00 in0.0 mm
04:40 AM 60.3°F15.7°C 34.6°F1.4°C 38% Calm Calm -- 29.55 in1000.7 mb 0.00 in0.0 mm 0.00 in0.0 mm 0.00 in0.0 mm
04:45 AM 60.2°F15.7°C 35.8°F2.1°C 40% Calm Calm -- 29.55 in1000.7 mb 0.00 in0.0 mm 0.00 in0.0 mm 0.00 in0.0 mm
04:50 AM 60.1°F15.6°C 36.9°F2.7°C 42% Calm Calm -- 29.55 in1000.7 mb 0.00 in0.0 mm 0.00 in0.0 mm 0.00 in0.0 mm
04:55 AM 60.4°F15.8°C 39.0°F3.9°C 45% Calm Calm 2.0 mph3.2 kmh 29.55 in1000.7 mb 0.00 in0.0 mm 0.00 in0.0 mm 0.00 in0.0 mm
05:00 AM 60.2°F15.7°C 39.3°F4.1°C 46% Calm Calm -- 29.55 in1000.7 mb 0.00 in0.0 mm 0.00 in0.0 mm 0.00 in0.0 mm
05:05 AM 60.0°F15.6°C 39.2°F4.0°C 46% Calm Calm 2.0 mph3.2 kmh 29.55 in1000.7 mb 0.00 in0.0 mm 0.00 in0.0 mm 0.00 in0.0 mm
05:10 AM 59.9°F15.5°C 39.1°F3.9°C 46% Calm Calm -- 29.55 in1000.7 mb 0.00 in0.0 mm 0.00 in0.0 mm 0.00 in0.0 mm
05:15 AM 59.8°F15.4°C 39.0°F3.9°C 46% Calm Calm -- 29.55 in1000.7 mb 0.00 in0.0 mm 0.00 in0.0 mm 0.00 in0.0 mm
05:20 AM 59.8°F15.4°C 39.5°F4.2°C 47% Calm Calm -- 29.55 in1000.7 mb 0.00 in0.0 mm 0.00 in0.0 mm 0.00 in0.0 mm
05:25 AM 59.5°F15.3°C 39.3°F4.1°C 47% Calm Calm -- 29.55 in1000.7 mb 0.00 in0.0 mm 0.00 in0.0 mm 0.00 in0.0 mm
05:30 AM 59.3°F15.2°C 39.1°F3.9°C 47% Calm Calm -- 29.55 in1000.7 mb 0.00 in0.0 mm 0.00 in0.0 mm 0.00 in0.0 mm
05:35 AM 59.1°F15.1°C 39.4°F4.1°C 48% Calm Calm -- 29.55 in1000.7 mb 0.00 in0.0 mm 0.00 in0.0 mm 0.00 in0.0 mm
05:40 AM 58.9°F14.9°C 38.7°F3.7°C 47% Calm Calm -- 29.55 in1000.7 mb 0.00 in0.0 mm 0.00 in0.0 mm 0.00 in0.0 mm
05:45 AM 58.8°F14.9°C 38.6°F3.7°C 47% Calm Calm -- 29.56 in1001.0 mb 0.00 in0.0 mm 0.00 in0.0 mm 0.00 in0.0 mm
05:50 AM 58.7°F14.8°C 38.5°F3.6°C 47% Calm Calm -- 29.56 in1001.0 mb 0.00 in0.0 mm 0.00 in0.0 mm 0.00 in0.0 mm
05:55 AM 58.5°F14.7°C 38.3°F3.5°C 47% Calm Calm -- 29.56 in1001.0 mb 0.00 in0.0 mm 0.00 in0.0 mm 0.00 in0.0 mm
06:00 AM 58.2°F14.6°C 38.1°F3.4°C 47% 4.0 mph NNE6.4 kmh NNE 4.0 mph6.4 kmh 29.56 in1001.0 mb 0.00 in0.0 mm 0.00 in0.0 mm 0.00 in0.0 mm
06:05 AM 58.3°F14.6°C 37.6°F3.1°C 46% 4.0 mph NNE6.4 kmh NNE 5.0 mph8.0 kmh 29.56 in1001.0 mb 0.00 in0.0 mm 0.00 in0.0 mm 0.00 in0.0 mm
06:10 AM 58.9°F14.9°C 38.2°F3.4°C 46% 2.0 mph ESE3.2 kmh ESE 5.0 mph8.0 kmh 29.56 in1001.0 mb 0.00 in0.0 mm 0.00 in0.0 mm 0.00 in0.0 mm
06:15 AM 59.2°F15.1°C 38.4°F3.6°C 46% Calm Calm -- 29.58 in1001.7 mb 0.00 in0.0 mm 0.00 in0.0 mm 0.00 in0.0 mm
06:20 AM 59.5°F15.3°C 39.3°F4.1°C 47% Calm Calm -- 29.58 in1001.7 mb 0.00 in0.0 mm 0.00 in0.0 mm 0.00 in0.0 mm
06:25 AM 60.0°F15.6°C 40.3°F4.6°C 48% 3.0 mph ESE4.8 kmh ESE 3.0 mph4.8 kmh 29.58 in1001.7 mb 0.00 in0.0 mm 0.00 in0.0 mm 0.00 in0.0 mm
06:30 AM 60.7°F15.9°C 41.4°F5.2°C 49% 2.0 mph ESE3.2 kmh ESE 4.0 mph6.4 kmh 29.57 in1001.4 mb 0.00 in0.0 mm 0.00 in0.0 mm 0.00 in0.0 mm
06:35 AM 61.0°F16.1°C 41.2°F5.1°C 48% 3.0 mph ESE4.8 kmh ESE 4.0 mph6.4 kmh 29.57 in1001.4 mb 0.00 in0.0 mm 0.00 in0.0 mm 0.00 in0.0 mm
06:40 AM 61.3°F16.3°C 40.9°F4.9°C 47% Calm Calm 2.0 mph3.2 kmh 29.57 in1001.4 mb 0.00 in0.0 mm 0.00 in0.0 mm 0.00 in0.0 mm
06:45 AM 61.5°F16.4°C 41.1°F5.1°C 47% Calm Calm -- 29.56 in1001.0 mb 0.00 in0.0 mm 0.00 in0.0 mm 0.00 in0.0 mm
06:50 AM 61.9°F16.6°C 40.9°F4.9°C 46% Calm Calm -- 29.56 in1001.0 mb 0.00 in0.0 mm 0.00 in0.0 mm 0.00 in0.0 mm
06:55 AM 62.4°F16.9°C 41.3°F5.2°C 46% Calm Calm -- 29.56 in1001.0 mb 0.00 in0.0 mm 0.00 in0.0 mm 0.00 in0.0 mm
07:00 AM 63.0°F17.2°C 41.3°F5.2°C 45% Calm Calm -- 29.56 in1001.0 mb 0.00 in0.0 mm 0.00 in0.0 mm 0.00 in0.0 mm
07:05 AM 63.9°F17.7°C 41.6°F5.3°C 44% 2.0 mph ESE3.2 kmh ESE 2.0 mph3.2 kmh 29.56 in1001.0 mb 0.00 in0.0 mm 0.00 in0.0 mm 0.00 in0.0 mm
07:10 AM 64.7°F18.2°C 42.3°F5.7°C 44% Calm Calm -- 29.56 in1001.0 mb 0.00 in0.0 mm 0.00 in0.0 mm 0.00 in0.0 mm
07:15 AM 65.4°F18.6°C 42.3°F5.7°C 43% 1.0 mph ESE1.6 kmh ESE 3.0 mph4.8 kmh 29.57 in1001.4 mb 0.00 in0.0 mm 0.00 in0.0 mm 0.00 in0.0 mm
07:20 AM 66.0°F18.9°C 41.6°F5.3°C 41% 1.0 mph ESE1.6 kmh ESE 2.0 mph3.2 kmh 29.57 in1001.4 mb 0.00 in0.0 mm 0.00 in0.0 mm 0.00 in0.0 mm
07:25 AM 66.5°F19.2°C 41.4°F5.2°C 40% Calm Calm -- 29.57 in1001.4 mb 0.00 in0.0 mm 0.00 in0.0 mm 0.00 in0.0 mm
07:30 AM 67.0°F19.4°C 41.9°F5.5°C 40% Calm Calm -- 29.57 in1001.4 mb 0.00 in0.0 mm 0.00 in0.0 mm 0.00 in0.0 mm
07:35 AM 68.1°F20.1°C 42.2°F5.7°C 39% 1.0 mph ESE1.6 kmh ESE 1.0 mph1.6 kmh 29.57 in1001.4 mb 0.00 in0.0 mm 0.00 in0.0 mm 0.00 in0.0 mm
07:40 AM 69.1°F20.6°C 41.7°F5.4°C 37% 1.0 mph ESE1.6 kmh ESE 3.0 mph4.8 kmh 29.57 in1001.4 mb 0.00 in0.0 mm 0.00 in0.0 mm 0.00 in0.0 mm
07:45 AM 70.0°F21.1°C 41.8°F5.4°C 36% Calm Calm -- 29.56 in1001.0 mb 0.00 in0.0 mm 0.00 in0.0 mm 0.00 in0.0 mm
07:50 AM 71.0°F21.7°C 40.4°F4.7°C 33% Calm Calm -- 29.56 in1001.0 mb 0.00 in0.0 mm 0.00 in0.0 mm 0.00 in0.0 mm
07:55 AM 72.2°F22.3°C 39.9°F4.4°C 31% 1.0 mph ESE1.6 kmh ESE 2.0 mph3.2 kmh 29.56 in1001.0 mb 0.00 in0.0 mm 0.00 in0.0 mm 0.00 in0.0 mm
08:00 AM 73.3°F22.9°C 40.8°F4.9°C 31% 2.0 mph ESE3.2 kmh ESE 4.0 mph6.4 kmh 29.55 in1000.7 mb 0.00 in0.0 mm 0.00 in0.0 mm 0.00 in0.0 mm
08:05 AM 74.0°F23.3°C 42.3°F5.7°C 32% 2.0 mph ESE3.2 kmh ESE 4.0 mph6.4 kmh 29.55 in1000.7 mb 0.00 in0.0 mm 0.00 in0.0 mm 0.00 in0.0 mm
08:10 AM 74.4°F23.6°C 40.9°F4.9°C 30% 1.0 mph SE1.6 kmh SE 5.0 mph8.0 kmh 29.55 in1000.7 mb 0.00 in0.0 mm 0.00 in0.0 mm 0.00 in0.0 mm
08:15 AM 74.7°F23.7°C 41.2°F5.1°C 30% 1.0 mph SE1.6 kmh SE 5.0 mph8.0 kmh 29.56 in1001.0 mb 0.00 in0.0 mm 0.00 in0.0 mm 0.00 in0.0 mm
08:20 AM 75.3°F24.1°C 39.9°F4.4°C 28% 4.0 mph SSW6.4 kmh SSW 5.0 mph8.0 kmh 29.56 in1001.0 mb 0.00 in0.0 mm 0.00 in0.0 mm 0.00 in0.0 mm
08:25 AM 76.0°F24.4°C 36.6°F2.6°C 24% 5.0 mph W8.0 kmh W 7.0 mph11.3 kmh 29.56 in1001.0 mb 0.00 in0.0 mm 0.00 in0.0 mm 0.00 in0.0 mm
08:30 AM 76.6°F24.8°C 36.0°F2.2°C 23% 6.0 mph WSW9.7 kmh WSW 8.0 mph12.9 kmh 29.57 in1001.4 mb 0.00 in0.0 mm 0.00 in0.0 mm 0.00 in0.0 mm
08:35 AM 77.0°F25.0°C 36.3°F2.4°C 23% 4.0 mph SW6.4 kmh SW 8.0 mph12.9 kmh 29.57 in1001.4 mb 0.00 in0.0 mm 0.00 in0.0 mm 0.00 in0.0 mm
08:40 AM 77.1°F25.1°C 35.3°F1.8°C 22% 2.0 mph WSW3.2 kmh WSW 8.0 mph12.9 kmh 29.57 in1001.4 mb 0.00 in0.0 mm 0.00 in0.0 mm 0.00 in0.0 mm
08:45 AM 77.5°F25.3°C 34.5°F1.4°C 21% 6.0 mph WSW9.7 kmh WSW 8.0 mph12.9 kmh 29.57 in1001.4 mb 0.00 in0.0 mm 0.00 in0.0 mm 0.00 in0.0 mm
08:50 AM 77.9°F25.5°C 34.8°F1.6°C 21% 2.0 mph WSW3.2 kmh WSW 7.0 mph11.3 kmh 29.57 in1001.4 mb 0.00 in0.0 mm 0.00 in0.0 mm 0.00 in0.0 mm
08:55 AM 78.5°F25.8°C 34.1°F1.2°C 20% 2.0 mph SW3.2 kmh SW 7.0 mph11.3 kmh 29.57 in1001.4 mb 0.00 in0.0 mm 0.00 in0.0 mm 0.00 in0.0 mm
09:00 AM 79.1°F26.2°C 34.6°F1.4°C 20% 5.0 mph WSW8.0 kmh WSW 7.0 mph11.3 kmh 29.57 in1001.4 mb 0.00 in0.0 mm 0.00 in0.0 mm 0.00 in0.0 mm
09:05 AM 79.3°F26.3°C 33.5°F0.8°C 19% 2.0 mph W3.2 kmh W 7.0 mph11.3 kmh 29.57 in1001.4 mb 0.00 in0.0 mm 0.00 in0.0 mm 0.00 in0.0 mm
09:10 AM 79.6°F26.4°C 33.7°F0.9°C 19% 4.0 mph W6.4 kmh W 7.0 mph11.3 kmh 29.57 in1001.4 mb 0.00 in0.0 mm 0.00 in0.0 mm 0.00 in0.0 mm
09:15 AM 80.1°F26.7°C 34.1°F1.2°C 19% 1.0 mph SW1.6 kmh SW 7.0 mph11.3 kmh 29.57 in1001.4 mb 0.00 in0.0 mm 0.00 in0.0 mm 0.00 in0.0 mm
09:20 AM 80.7°F27.1°C 31.8°F-0.1°C 17% 6.0 mph SW9.7 kmh SW 10.0 mph16.1 kmh 29.57 in1001.4 mb 0.00 in0.0 mm 0.00 in0.0 mm 0.00 in0.0 mm
09:25 AM 81.2°F27.3°C 32.2°F0.1°C 17% 7.0 mph SW11.3 kmh SW 12.0 mph19.3 kmh 29.57 in1001.4 mb 0.00 in0.0 mm 0.00 in0.0 mm 0.00 in0.0 mm
09:30 AM 81.2°F27.3°C 30.7°F-0.7°C 16% 7.0 mph WSW11.3 kmh WSW 12.0 mph19.3 kmh 29.57 in1001.4 mb 0.00 in0.0 mm 0.00 in0.0 mm 0.00 in0.0 mm
09:35 AM 81.6°F27.6°C 32.5°F0.3°C 17% 5.0 mph WSW8.0 kmh WSW 12.0 mph19.3 kmh 29.57 in1001.4 mb 0.00 in0.0 mm 0.00 in0.0 mm 0.00 in0.0 mm
09:40 AM 82.0°F27.8°C 31.4°F-0.3°C 16% 10.0 mph WSW16.1 kmh WSW 12.0 mph19.3 kmh 29.57 in1001.4 mb 0.00 in0.0 mm 0.00 in0.0 mm 0.00 in0.0 mm
09:45 AM 82.3°F27.9°C 30.0°F-1.1°C 15% 9.0 mph W14.5 kmh W 12.0 mph19.3 kmh 29.56 in1001.0 mb 0.00 in0.0 mm 0.00 in0.0 mm 0.00 in0.0 mm
09:50 AM 82.8°F28.2°C 30.4°F-0.9°C 15% 12.0 mph SW19.3 kmh SW 13.0 mph20.9 kmh 29.56 in1001.0 mb 0.00 in0.0 mm 0.00 in0.0 mm 0.00 in0.0 mm
09:55 AM 82.7°F28.2°C 30.3°F-0.9°C 15% 6.0 mph WSW9.7 kmh WSW 13.0 mph20.9 kmh 29.56 in1001.0 mb 0.00 in0.0 mm 0.00 in0.0 mm 0.00 in0.0 mm
10:00 AM 83.1°F28.4°C 30.7°F-0.7°C 15% 10.0 mph W16.1 kmh W 13.0 mph20.9 kmh 29.56 in1001.0 mb 0.00 in0.0 mm 0.00 in0.0 mm 0.00 in0.0 mm
10:05 AM 83.5°F28.6°C 32.6°F0.3°C 16% 11.0 mph W17.7 kmh W 16.0 mph25.7 kmh 29.56 in1001.0 mb 0.00 in0.0 mm 0.00 in0.0 mm 0.00 in0.0 mm
10:10 AM 83.8°F28.8°C 32.8°F0.4°C 16% 9.0 mph W14.5 kmh W 16.0 mph25.7 kmh 29.56 in1001.0 mb 0.00 in0.0 mm 0.00 in0.0 mm 0.00 in0.0 mm
10:15 AM 84.0°F28.9°C 31.4°F-0.3°C 15% 10.0 mph W16.1 kmh W 16.0 mph25.7 kmh 29.56 in1001.0 mb 0.00 in0.0 mm 0.00 in0.0 mm 0.00 in0.0 mm
10:20 AM 84.3°F29.1°C 33.2°F0.7°C 16% 10.0 mph WSW16.1 kmh WSW 16.0 mph25.7 kmh 29.56 in1001.0 mb 0.00 in0.0 mm 0.00 in0.0 mm 0.00 in0.0 mm
10:25 AM 84.5°F29.2°C 33.4°F0.8°C 16% 12.0 mph SW19.3 kmh SW 15.0 mph24.1 kmh 29.56 in1001.0 mb 0.00 in0.0 mm 0.00 in0.0 mm 0.00 in0.0 mm
10:30 AM 84.5°F29.2°C 34.9°F1.6°C 17% 8.0 mph SW12.9 kmh SW 15.0 mph24.1 kmh 29.55 in1000.7 mb 0.00 in0.0 mm 0.00 in0.0 mm 0.00 in0.0 mm
10:35 AM 85.0°F29.4°C 35.3°F1.8°C 17% 13.0 mph WSW20.9 kmh WSW 16.0 mph25.7 kmh 29.55 in1000.7 mb 0.00 in0.0 mm 0.00 in0.0 mm 0.00 in0.0 mm
10:40 AM 85.5°F29.7°C 34.2°F1.2°C 16% 10.0 mph WSW16.1 kmh WSW 16.0 mph25.7 kmh 29.55 in1000.7 mb 0.00 in0.0 mm 0.00 in0.0 mm 0.00 in0.0 mm
10:45 AM 85.7°F29.8°C 35.8°F2.1°C 17% 10.0 mph W16.1 kmh W 16.0 mph25.7 kmh 29.56 in1001.0 mb 0.00 in0.0 mm 0.00 in0.0 mm 0.00 in0.0 mm
10:50 AM 85.7°F29.8°C 34.3°F1.3°C 16% 13.0 mph W20.9 kmh W 19.0 mph30.6 kmh 29.56 in1001.0 mb 0.00 in0.0 mm 0.00 in0.0 mm 0.00 in0.0 mm
10:55 AM 85.6°F29.8°C 35.8°F2.1°C 17% 13.0 mph WSW20.9 kmh WSW 19.0 mph30.6 kmh 29.56 in1001.0 mb 0.00 in0.0 mm 0.00 in0.0 mm 0.00 in0.0 mm
11:00 AM 85.6°F29.8°C 35.8°F2.1°C 17% 11.0 mph W17.7 kmh W 19.0 mph30.6 kmh 29.56 in1001.0 mb 0.00 in0.0 mm 0.00 in0.0 mm 0.00 in0.0 mm
11:05 AM 86.2°F30.1°C 36.2°F2.3°C 17% 13.0 mph WSW20.9 kmh WSW 19.0 mph30.6 kmh 29.56 in1001.0 mb 0.00 in0.0 mm 0.00 in0.0 mm 0.00 in0.0 mm
11:10 AM 86.2°F30.1°C 36.2°F2.3°C 17% 16.0 mph WNW25.7 kmh WNW 19.0 mph30.6 kmh 29.56 in1001.0 mb 0.00 in0.0 mm 0.00 in0.0 mm 0.00 in0.0 mm
11:15 AM 86.1°F30.1°C 34.6°F1.4°C 16% 11.0 mph WNW17.7 kmh WNW 19.0 mph30.6 kmh 29.57 in1001.4 mb 0.00 in0.0 mm 0.00 in0.0 mm 0.00 in0.0 mm
11:20 AM 86.2°F30.1°C 36.2°F2.3°C 17% 15.0 mph SW24.1 kmh SW 20.0 mph32.2 kmh 29.57 in1001.4 mb 0.00 in0.0 mm 0.00 in0.0 mm 0.00 in0.0 mm
11:25 AM 86.3°F30.2°C 34.8°F1.6°C 16% 12.0 mph WSW19.3 kmh WSW 20.0 mph32.2 kmh 29.57 in1001.4 mb 0.00 in0.0 mm 0.00 in0.0 mm 0.00 in0.0 mm
11:30 AM 86.3°F30.2°C 36.3°F2.4°C 17% 15.0 mph WSW24.1 kmh WSW 20.0 mph32.2 kmh 29.56 in1001.0 mb 0.00 in0.0 mm 0.00 in0.0 mm 0.00 in0.0 mm
11:35 AM 86.6°F30.3°C 36.6°F2.6°C 17% 11.0 mph WSW17.7 kmh WSW 20.0 mph32.2 kmh 29.56 in1001.0 mb 0.00 in0.0 mm 0.00 in0.0 mm 0.00 in0.0 mm
11:40 AM 86.5°F30.3°C 36.5°F2.5°C 17% 10.0 mph WSW16.1 kmh WSW 20.0 mph32.2 kmh 29.56 in1001.0 mb 0.00 in0.0 mm 0.00 in0.0 mm 0.00 in0.0 mm
11:45 AM 86.5°F30.3°C 40.6°F4.8°C 20% 14.0 mph WSW22.5 kmh WSW 20.0 mph32.2 kmh 29.56 in1001.0 mb 0.00 in0.0 mm 0.00 in0.0 mm 0.00 in0.0 mm
11:50 AM 86.6°F30.3°C 44.4°F6.9°C 23% 8.0 mph WSW12.9 kmh WSW 20.0 mph32.2 kmh 29.56 in1001.0 mb 0.00 in0.0 mm 0.00 in0.0 mm 0.00 in0.0 mm
11:55 AM 86.7°F30.4°C 43.3°F6.3°C 22% 12.0 mph W19.3 kmh W 19.0 mph30.6 kmh 29.56 in1001.0 mb 0.00 in0.0 mm 0.00 in0.0 mm 0.00 in0.0 mm
12:00 PM 86.8°F30.4°C 40.9°F4.9°C 20% 16.0 mph WSW25.7 kmh WSW 19.0 mph30.6 kmh 29.56 in1001.0 mb 0.00 in0.0 mm 0.00 in0.0 mm 0.00 in0.0 mm
12:05 PM 86.9°F30.5°C 43.4°F6.3°C 22% 18.0 mph W29.0 kmh W 19.0 mph30.6 kmh 29.56 in1001.0 mb 0.00 in0.0 mm 0.00 in0.0 mm 0.00 in0.0 mm
12:10 PM 86.9°F30.5°C 42.2°F5.7°C 21% 19.0 mph WSW30.6 kmh WSW 20.0 mph32.2 kmh 29.56 in1001.0 mb 0.00 in0.0 mm 0.00 in0.0 mm 0.00 in0.0 mm
12:15 PM 86.8°F30.4°C 43.4°F6.3°C 22% 12.0 mph WSW19.3 kmh WSW 20.0 mph32.2 kmh 29.56 in1001.0 mb 0.00 in0.0 mm 0.00 in0.0 mm 0.00 in0.0 mm
12:20 PM 87.0°F30.6°C 43.5°F6.4°C 22% 12.0 mph WSW19.3 kmh WSW 20.0 mph32.2 kmh 29.56 in1001.0 mb 0.00 in0.0 mm 0.00 in0.0 mm 0.00 in0.0 mm
12:25 PM 86.8°F30.4°C 44.5°F6.9°C 23% 13.0 mph SW20.9 kmh SW 20.0 mph32.2 kmh 29.56 in1001.0 mb 0.00 in0.0 mm 0.00 in0.0 mm 0.00 in0.0 mm
12:30 PM 86.7°F30.4°C 44.4°F6.9°C 23% 15.0 mph WSW24.1 kmh WSW 21.0 mph33.8 kmh 29.56 in1001.0 mb 0.00 in0.0 mm 0.00 in0.0 mm 0.00 in0.0 mm
12:35 PM 86.5°F30.3°C 44.3°F6.8°C 23% 13.0 mph WSW20.9 kmh WSW 22.0 mph35.4 kmh 29.56 in1001.0 mb 0.00 in0.0 mm 0.00 in0.0 mm 0.00 in0.0 mm
12:40 PM 85.9°F29.9°C 46.0°F7.8°C 25% 13.0 mph WSW20.9 kmh WSW 22.0 mph35.4 kmh 29.56 in1001.0 mb 0.00 in0.0 mm 0.00 in0.0 mm 0.00 in0.0 mm
12:45 PM 86.1°F30.1°C 46.1°F7.8°C 25% 10.0 mph WSW16.1 kmh WSW 22.0 mph35.4 kmh 29.56 in1001.0 mb 0.00 in0.0 mm 0.00 in0.0 mm 0.00 in0.0 mm
12:50 PM 86.3°F30.2°C 47.3°F8.5°C 26% 15.0 mph WSW24.1 kmh WSW 22.0 mph35.4 kmh 29.56 in1001.0 mb 0.00 in0.0 mm 0.00 in0.0 mm 0.00 in0.0 mm
12:55 PM 86.8°F30.4°C 46.7°F8.2°C 25% 10.0 mph WSW16.1 kmh WSW 20.0 mph32.2 kmh 29.56 in1001.0 mb 0.00 in0.0 mm 0.00 in0.0 mm 0.00 in0.0 mm
01:00 PM 86.6°F30.3°C 46.6°F8.1°C 25% 18.0 mph SW29.0 kmh SW 23.0 mph37.0 kmh 29.57 in1001.4 mb 0.00 in0.0 mm 0.00 in0.0 mm 0.00 in0.0 mm
01:05 PM 86.0°F30.0°C 48.1°F8.9°C 27% 13.0 mph W20.9 kmh W 23.0 mph37.0 kmh 29.57 in1001.4 mb 0.00 in0.0 mm 0.00 in0.0 mm 0.00 in0.0 mm
01:10 PM 86.3°F30.2°C 47.3°F8.5°C 26% 16.0 mph W25.7 kmh W 23.0 mph37.0 kmh 29.57 in1001.4 mb 0.00 in0.0 mm 0.00 in0.0 mm 0.00 in0.0 mm
01:15 PM 86.0°F30.0°C 48.1°F8.9°C 27% 12.0 mph WSW19.3 kmh WSW 23.0 mph37.0 kmh 29.56 in1001.0 mb 0.00 in0.0 mm 0.00 in0.0 mm 0.00 in0.0 mm
01:20 PM 85.9°F29.9°C 49.0°F9.4°C 28% 13.0 mph WSW20.9 kmh WSW 22.0 mph35.4 kmh 29.56 in1001.0 mb 0.00 in0.0 mm 0.00 in0.0 mm 0.00 in0.0 mm
01:25 PM 85.7°F29.8°C 48.8°F9.3°C 28% 15.0 mph WSW24.1 kmh WSW 23.0 mph37.0 kmh 29.56 in1001.0 mb 0.00 in0.0 mm 0.00 in0.0 mm 0.00 in0.0 mm
01:30 PM 85.8°F29.9°C 48.9°F9.4°C 28% 15.0 mph W24.1 kmh W 23.0 mph37.0 kmh 29.56 in1001.0 mb 0.00 in0.0 mm 0.00 in0.0 mm 0.00 in0.0 mm
01:35 PM 85.8°F29.9°C 49.8°F9.9°C 29% 15.0 mph SW24.1 kmh SW 23.0 mph37.0 kmh 29.56 in1001.0 mb 0.00 in0.0 mm 0.00 in0.0 mm 0.00 in0.0 mm
01:40 PM 86.0°F30.0°C 50.0°F10.0°C 29% 13.0 mph W20.9 kmh W 23.0 mph37.0 kmh 29.56 in1001.0 mb 0.00 in0.0 mm 0.00 in0.0 mm 0.00 in0.0 mm
01:45 PM 86.0°F30.0°C 49.1°F9.5°C 28% 16.0 mph W25.7 kmh W 23.0 mph37.0 kmh 29.57 in1001.4 mb 0.00 in0.0 mm 0.00 in0.0 mm 0.00 in0.0 mm
01:50 PM 85.8°F29.9°C 50.7°F10.4°C 30% 18.0 mph W29.0 kmh W 23.0 mph37.0 kmh 29.57 in1001.4 mb 0.00 in0.0 mm 0.00 in0.0 mm 0.00 in0.0 mm
01:55 PM 85.6°F29.8°C 50.6°F10.3°C 30% 19.0 mph W30.6 kmh W 24.0 mph38.6 kmh 29.57 in1001.4 mb 0.00 in0.0 mm 0.00 in0.0 mm 0.00 in0.0 mm
02:00 PM 85.2°F29.6°C 50.2°F10.1°C 30% 19.0 mph W30.6 kmh W 24.0 mph38.6 kmh 29.58 in1001.7 mb 0.00 in0.0 mm 0.00 in0.0 mm 0.00 in0.0 mm
02:05 PM 85.0°F29.4°C 50.9°F10.5°C 31% 15.0 mph WSW24.1 kmh WSW 24.0 mph38.6 kmh 29.58 in1001.7 mb 0.00 in0.0 mm 0.00 in0.0 mm 0.00 in0.0 mm
02:10 PM 84.9°F29.4°C 50.0°F10.0°C 30% 11.0 mph WSW17.7 kmh WSW 24.0 mph38.6 kmh 29.58 in1001.7 mb 0.00 in0.0 mm 0.00 in0.0 mm 0.00 in0.0 mm
02:15 PM 85.1°F29.5°C 50.1°F10.1°C 30% 12.0 mph WSW19.3 kmh WSW 24.0 mph38.6 kmh 29.58 in1001.7 mb 0.00 in0.0 mm 0.00 in0.0 mm 0.00 in0.0 mm
02:20 PM 85.1°F29.5°C 49.2°F9.6°C 29% 14.0 mph SW22.5 kmh SW 24.0 mph38.6 kmh 29.58 in1001.7 mb 0.00 in0.0 mm 0.00 in0.0 mm 0.00 in0.0 mm
02:25 PM 84.9°F29.4°C 50.0°F10.0°C 30% 10.0 mph WSW16.1 kmh WSW 24.0 mph38.6 kmh 29.58 in1001.7 mb 0.00 in0.0 mm 0.00 in0.0 mm 0.00 in0.0 mm
02:30 PM 84.8°F29.3°C 49.9°F9.9°C 30% 12.0 mph WSW19.3 kmh WSW 24.0 mph38.6 kmh 29.57 in1001.4 mb 0.00 in0.0 mm 0.00 in0.0 mm 0.00 in0.0 mm
02:35 PM 84.6°F29.2°C 49.7°F9.8°C 30% 11.0 mph WSW17.7 kmh WSW 24.0 mph38.6 kmh 29.57 in1001.4 mb 0.00 in0.0 mm 0.00 in0.0 mm 0.00 in0.0 mm
02:40 PM 84.9°F29.4°C 50.0°F10.0°C 30% 14.0 mph NW22.5 kmh NW 24.0 mph38.6 kmh 29.57 in1001.4 mb 0.00 in0.0 mm 0.00 in0.0 mm 0.00 in0.0 mm
02:45 PM 84.8°F29.3°C 49.9°F9.9°C 30% 15.0 mph WNW24.1 kmh WNW 23.0 mph37.0 kmh 29.58 in1001.7 mb 0.00 in0.0 mm 0.00 in0.0 mm 0.00 in0.0 mm
02:50 PM 84.8°F29.3°C 51.6°F10.9°C 32% 12.0 mph W19.3 kmh W 23.0 mph37.0 kmh 29.58 in1001.7 mb 0.00 in0.0 mm 0.00 in0.0 mm 0.00 in0.0 mm
02:55 PM 84.2°F29.0°C 50.3°F10.2°C 31% 14.0 mph WNW22.5 kmh WNW 23.0 mph37.0 kmh 29.58 in1001.7 mb 0.00 in0.0 mm 0.00 in0.0 mm 0.00 in0.0 mm
03:00 PM 84.2°F29.0°C 50.3°F10.2°C 31% 15.0 mph W24.1 kmh W 23.0 mph37.0 kmh 29.58 in1001.7 mb 0.00 in0.0 mm 0.00 in0.0 mm 0.00 in0.0 mm
03:05 PM 84.4°F29.1°C 50.4°F10.2°C 31% 15.0 mph WSW24.1 kmh WSW 23.0 mph37.0 kmh 29.58 in1001.7 mb 0.00 in0.0 mm 0.00 in0.0 mm 0.00 in0.0 mm
03:10 PM 83.8°F28.8°C 50.8°F10.4°C 32% 15.0 mph WSW24.1 kmh WSW 23.0 mph37.0 kmh 29.58 in1001.7 mb 0.00 in0.0 mm 0.00 in0.0 mm 0.00 in0.0 mm
03:15 PM 84.0°F28.9°C 50.9°F10.5°C 32% 10.0 mph W16.1 kmh W 23.0 mph37.0 kmh 29.58 in1001.7 mb 0.00 in0.0 mm 0.00 in0.0 mm 0.00 in0.0 mm
03:20 PM 84.2°F29.0°C 50.3°F10.2°C 31% 14.0 mph WSW22.5 kmh WSW 23.0 mph37.0 kmh 29.58 in1001.7 mb 0.00 in0.0 mm 0.00 in0.0 mm 0.00 in0.0 mm
03:25 PM 84.3°F29.1°C 51.2°F10.7°C 32% 14.0 mph WSW22.5 kmh WSW 23.0 mph37.0 kmh 29.58 in1001.7 mb 0.00 in0.0 mm 0.00 in0.0 mm 0.00 in0.0 mm
03:30 PM 83.9°F28.8°C 50.8°F10.4°C 32% 14.0 mph W22.5 kmh W 21.0 mph33.8 kmh 29.58 in1001.7 mb 0.00 in0.0 mm 0.00 in0.0 mm 0.00 in0.0 mm
03:35 PM 83.7°F28.7°C 50.7°F10.4°C 32% 13.0 mph W20.9 kmh W 24.0 mph38.6 kmh 29.58 in1001.7 mb 0.00 in0.0 mm 0.00 in0.0 mm 0.00 in0.0 mm
03:40 PM 84.1°F28.9°C 51.0°F10.6°C 32% 13.0 mph WNW20.9 kmh WNW 24.0 mph38.6 kmh 29.58 in1001.7 mb 0.00 in0.0 mm 0.00 in0.0 mm 0.00 in0.0 mm
03:45 PM 84.2°F29.0°C 50.3°F10.2°C 31% 11.0 mph WSW17.7 kmh WSW 24.0 mph38.6 kmh 29.58 in1001.7 mb 0.00 in0.0 mm 0.00 in0.0 mm 0.00 in0.0 mm
03:50 PM 84.2°F29.0°C 50.3°F10.2°C 31% 19.0 mph WNW30.6 kmh WNW 24.0 mph38.6 kmh 29.58 in1001.7 mb 0.00 in0.0 mm 0.00 in0.0 mm 0.00 in0.0 mm
03:55 PM 84.1°F28.9°C 50.2°F10.1°C 31% 15.0 mph W24.1 kmh W 23.0 mph37.0 kmh 29.58 in1001.7 mb 0.00 in0.0 mm 0.00 in0.0 mm 0.00 in0.0 mm
04:00 PM 84.3°F29.1°C 51.2°F10.7°C 32% 15.0 mph W24.1 kmh W 23.0 mph37.0 kmh 29.58 in1001.7 mb 0.00 in0.0 mm 0.00 in0.0 mm 0.00 in0.0 mm
04:05 PM 84.6°F29.2°C 50.6°F10.3°C 31% 12.0 mph WSW19.3 kmh WSW 23.0 mph37.0 kmh 29.58 in1001.7 mb 0.00 in0.0 mm 0.00 in0.0 mm 0.00 in0.0 mm
04:10 PM 84.8°F29.3°C 48.0°F8.9°C 28% 11.0 mph W17.7 kmh W 23.0 mph37.0 kmh 29.58 in1001.7 mb 0.00 in0.0 mm 0.00 in0.0 mm 0.00 in0.0 mm
04:15 PM 85.0°F29.4°C 48.2°F9.0°C 28% 12.0 mph WSW19.3 kmh WSW 23.0 mph37.0 kmh 29.58 in1001.7 mb 0.00 in0.0 mm 0.00 in0.0 mm 0.00 in0.0 mm
04:20 PM 84.4°F29.1°C 47.7°F8.7°C 28% 12.0 mph W19.3 kmh W 23.0 mph37.0 kmh 29.58 in1001.7 mb 0.00 in0.0 mm 0.00 in0.0 mm 0.00 in0.0 mm
04:25 PM 84.1°F28.9°C 50.2°F10.1°C 31% 11.0 mph WSW17.7 kmh WSW 23.0 mph37.0 kmh 29.58 in1001.7 mb 0.00 in0.0 mm 0.00 in0.0 mm 0.00 in0.0 mm
04:30 PM 84.0°F28.9°C 47.4°F8.6°C 28% 10.0 mph WSW16.1 kmh WSW 20.0 mph32.2 kmh 29.58 in1001.7 mb 0.00 in0.0 mm 0.00 in0.0 mm 0.00 in0.0 mm
04:35 PM 83.7°F28.7°C 49.8°F9.9°C 31% 14.0 mph WSW22.5 kmh WSW 21.0 mph33.8 kmh 29.58 in1001.7 mb 0.00 in0.0 mm 0.00 in0.0 mm 0.00 in0.0 mm
04:40 PM 83.7°F28.7°C 48.9°F9.4°C 30% 16.0 mph WSW25.7 kmh WSW 21.0 mph33.8 kmh 29.58 in1001.7 mb 0.00 in0.0 mm 0.00 in0.0 mm 0.00 in0.0 mm
04:45 PM 83.6°F28.7°C 49.7°F9.8°C 31% 11.0 mph W17.7 kmh W 20.0 mph32.2 kmh 29.58 in1001.7 mb 0.00 in0.0 mm 0.00 in0.0 mm 0.00 in0.0 mm
04:50 PM 83.2°F28.4°C 49.4°F9.7°C 31% 16.0 mph WSW25.7 kmh WSW 20.0 mph32.2 kmh 29.58 in1001.7 mb 0.00 in0.0 mm 0.00 in0.0 mm 0.00 in0.0 mm
04:55 PM 82.8°F28.2°C 49.9°F9.9°C 32% 16.0 mph WNW25.7 kmh WNW 20.0 mph32.2 kmh 29.58 in1001.7 mb 0.00 in0.0 mm 0.00 in0.0 mm 0.00 in0.0 mm
05:00 PM 82.7°F28.2°C 49.8°F9.9°C 32% 14.0 mph W22.5 kmh W 20.0 mph32.2 kmh 29.58 in1001.7 mb 0.00 in0.0 mm 0.00 in0.0 mm 0.00 in0.0 mm
05:05 PM 82.6°F28.1°C 49.7°F9.8°C 32% 11.0 mph W17.7 kmh W 19.0 mph30.6 kmh 29.58 in1001.7 mb 0.00 in0.0 mm 0.00 in0.0 mm 0.00 in0.0 mm
05:10 PM 82.5°F28.1°C 49.6°F9.8°C 32% 13.0 mph WSW20.9 kmh WSW 19.0 mph30.6 kmh 29.58 in1001.7 mb 0.00 in0.0 mm 0.00 in0.0 mm 0.00 in0.0 mm
05:15 PM 82.5°F28.1°C 49.6°F9.8°C 32% 14.0 mph WNW22.5 kmh WNW 19.0 mph30.6 kmh 29.59 in1002.0 mb 0.00 in0.0 mm 0.00 in0.0 mm 0.00 in0.0 mm
05:20 PM 82.2°F27.9°C 48.5°F9.2°C 31% 13.0 mph W20.9 kmh W 19.0 mph30.6 kmh 29.59 in1002.0 mb 0.00 in0.0 mm 0.00 in0.0 mm 0.00 in0.0 mm
05:25 PM 81.6°F27.6°C 48.0°F8.9°C 31% 14.0 mph W22.5 kmh W 21.0 mph33.8 kmh 29.59 in1002.0 mb 0.00 in0.0 mm 0.00 in0.0 mm 0.00 in0.0 mm
05:30 PM 81.4°F27.4°C 47.8°F8.8°C 31% 12.0 mph W19.3 kmh W 21.0 mph33.8 kmh 29.59 in1002.0 mb 0.00 in0.0 mm 0.00 in0.0 mm 0.00 in0.0 mm
05:35 PM 81.1°F27.3°C 47.6°F8.7°C 31% 8.0 mph WSW12.9 kmh WSW 21.0 mph33.8 kmh 29.59 in1002.0 mb 0.00 in0.0 mm 0.00 in0.0 mm 0.00 in0.0 mm
05:40 PM 81.5°F27.5°C 47.9°F8.8°C 31% 10.0 mph WNW16.1 kmh WNW 21.0 mph33.8 kmh 29.59 in1002.0 mb 0.00 in0.0 mm 0.00 in0.0 mm 0.00 in0.0 mm
05:45 PM 81.1°F27.3°C 47.6°F8.7°C 31% 13.0 mph WSW20.9 kmh WSW 21.0 mph33.8 kmh 29.59 in1002.0 mb 0.00 in0.0 mm 0.00 in0.0 mm 0.00 in0.0 mm
05:50 PM 80.7°F27.1°C 48.1°F8.9°C 32% 16.0 mph W25.7 kmh W 21.0 mph33.8 kmh 29.59 in1002.0 mb 0.00 in0.0 mm 0.00 in0.0 mm 0.00 in0.0 mm
05:55 PM 80.5°F26.9°C 47.9°F8.8°C 32% 13.0 mph W20.9 kmh W 21.0 mph33.8 kmh 29.59 in1002.0 mb 0.00 in0.0 mm 0.00 in0.0 mm 0.00 in0.0 mm
06:00 PM 80.3°F26.8°C 48.5°F9.2°C 33% 10.0 mph W16.1 kmh W 21.0 mph33.8 kmh 29.59 in1002.0 mb 0.00 in0.0 mm 0.00 in0.0 mm 0.00 in0.0 mm
06:05 PM 80.3°F26.8°C 47.7°F8.7°C 32% 10.0 mph W16.1 kmh W 19.0 mph30.6 kmh 29.59 in1002.0 mb 0.00 in0.0 mm 0.00 in0.0 mm 0.00 in0.0 mm
06:10 PM 80.3°F26.8°C 48.5°F9.2°C 33% 10.0 mph W16.1 kmh W 19.0 mph30.6 kmh 29.59 in1002.0 mb 0.00 in0.0 mm 0.00 in0.0 mm 0.00 in0.0 mm
06:15 PM 80.2°F26.8°C 48.5°F9.2°C 33% 14.0 mph W22.5 kmh W 19.0 mph30.6 kmh 29.57 in1001.4 mb 0.00 in0.0 mm 0.00 in0.0 mm 0.00 in0.0 mm
06:20 PM 79.8°F26.6°C 48.1°F8.9°C 33% 11.0 mph W17.7 kmh W 19.0 mph30.6 kmh 29.57 in1001.4 mb 0.00 in0.0 mm 0.00 in0.0 mm 0.00 in0.0 mm
06:25 PM 79.3°F26.3°C 47.7°F8.7°C 33% 10.0 mph WSW16.1 kmh WSW 19.0 mph30.6 kmh 29.57 in1001.4 mb 0.00 in0.0 mm 0.00 in0.0 mm 0.00 in0.0 mm
06:30 PM 79.2°F26.2°C 47.6°F8.7°C 33% 10.0 mph W16.1 kmh W 19.0 mph30.6 kmh 29.57 in1001.4 mb 0.00 in0.0 mm 0.00 in0.0 mm 0.00 in0.0 mm
06:35 PM 79.0°F26.1°C 47.4°F8.6°C 33% 12.0 mph WSW19.3 kmh WSW 19.0 mph30.6 kmh 29.57 in1001.4 mb 0.00 in0.0 mm 0.00 in0.0 mm 0.00 in0.0 mm
06:40 PM 78.7°F25.9°C 47.2°F8.4°C 33% 14.0 mph WSW22.5 kmh WSW 19.0 mph30.6 kmh 29.57 in1001.4 mb 0.00 in0.0 mm 0.00 in0.0 mm 0.00 in0.0 mm
06:45 PM 78.6°F25.9°C 47.1°F8.4°C 33% 11.0 mph W17.7 kmh W 19.0 mph30.6 kmh 29.58 in1001.7 mb 0.00 in0.0 mm 0.00 in0.0 mm 0.00 in0.0 mm
06:50 PM 78.4°F25.8°C 46.9°F8.3°C 33% 11.0 mph WSW17.7 kmh WSW 19.0 mph30.6 kmh 29.58 in1001.7 mb 0.00 in0.0 mm 0.00 in0.0 mm 0.00 in0.0 mm
06:55 PM 77.9°F25.5°C 47.2°F8.4°C 34% 14.0 mph SW22.5 kmh SW 19.0 mph30.6 kmh 29.58 in1001.7 mb 0.00 in0.0 mm 0.00 in0.0 mm 0.00 in0.0 mm
07:00 PM 77.6°F25.3°C 47.0°F8.3°C 34% 10.0 mph W16.1 kmh W 19.0 mph30.6 kmh 29.59 in1002.0 mb 0.00 in0.0 mm 0.00 in0.0 mm 0.00 in0.0 mm
07:05 PM 77.6°F25.3°C 47.8°F8.8°C 35% 11.0 mph WSW17.7 kmh WSW 19.0 mph30.6 kmh 29.59 in1002.0 mb 0.00 in0.0 mm 0.00 in0.0 mm 0.00 in0.0 mm
07:10 PM 77.2°F25.1°C 47.4°F8.6°C 35% 11.0 mph WSW17.7 kmh WSW 19.0 mph30.6 kmh 29.59 in1002.0 mb 0.00 in0.0 mm 0.00 in0.0 mm 0.00 in0.0 mm
07:15 PM 76.8°F24.9°C 47.8°F8.8°C 36% 9.0 mph WSW14.5 kmh WSW 18.0 mph29.0 kmh 29.56 in1001.0 mb 0.00 in0.0 mm 0.00 in0.0 mm 0.00 in0.0 mm
07:20 PM 76.6°F24.8°C 46.9°F8.3°C 35% 11.0 mph WSW17.7 kmh WSW 18.0 mph29.0 kmh 29.56 in1001.0 mb 0.00 in0.0 mm 0.00 in0.0 mm 0.00 in0.0 mm
07:25 PM 76.3°F24.6°C 47.4°F8.6°C 36% 10.0 mph WSW16.1 kmh WSW 18.0 mph29.0 kmh 29.56 in1001.0 mb 0.00 in0.0 mm 0.00 in0.0 mm 0.00 in0.0 mm
07:30 PM 75.7°F24.3°C 47.6°F8.7°C 37% 10.0 mph SW16.1 kmh SW 18.0 mph29.0 kmh 29.57 in1001.4 mb 0.00 in0.0 mm 0.00 in0.0 mm 0.00 in0.0 mm
07:35 PM 75.3°F24.1°C 47.9°F8.8°C 38% 9.0 mph SW14.5 kmh SW 18.0 mph29.0 kmh 29.57 in1001.4 mb 0.00 in0.0 mm 0.00 in0.0 mm 0.00 in0.0 mm
07:40 PM 75.0°F23.9°C 47.7°F8.7°C 38% 11.0 mph WSW17.7 kmh WSW 14.0 mph22.5 kmh 29.57 in1001.4 mb 0.00 in0.0 mm 0.00 in0.0 mm 0.00 in0.0 mm
07:45 PM 74.7°F23.7°C 48.1°F8.9°C 39% 8.0 mph WSW12.9 kmh WSW 14.0 mph22.5 kmh 29.57 in1001.4 mb 0.00 in0.0 mm 0.00 in0.0 mm 0.00 in0.0 mm
07:50 PM 74.3°F23.5°C 49.1°F9.5°C 41% 7.0 mph SW11.3 kmh SW 14.0 mph22.5 kmh 29.57 in1001.4 mb 0.00 in0.0 mm 0.00 in0.0 mm 0.00 in0.0 mm
07:55 PM 74.0°F23.3°C 49.4°F9.7°C 42% 10.0 mph WSW16.1 kmh WSW 14.0 mph22.5 kmh 29.57 in1001.4 mb 0.00 in0.0 mm 0.00 in0.0 mm 0.00 in0.0 mm
08:00 PM 73.5°F23.1°C 49.6°F9.8°C 43% 7.0 mph WSW11.3 kmh WSW 14.0 mph22.5 kmh 29.58 in1001.7 mb 0.00 in0.0 mm 0.00 in0.0 mm 0.00 in0.0 mm
08:05 PM 73.1°F22.8°C 49.9°F9.9°C 44% 11.0 mph WSW17.7 kmh WSW 14.0 mph22.5 kmh 29.58 in1001.7 mb 0.00 in0.0 mm 0.00 in0.0 mm 0.00 in0.0 mm
08:10 PM 72.7°F22.6°C 50.7°F10.4°C 46% 9.0 mph WSW14.5 kmh WSW 13.0 mph20.9 kmh 29.58 in1001.7 mb 0.00 in0.0 mm 0.00 in0.0 mm 0.00 in0.0 mm
08:15 PM 72.2°F22.3°C 50.8°F10.4°C 47% 9.0 mph WSW14.5 kmh WSW 13.0 mph20.9 kmh 29.57 in1001.4 mb 0.00 in0.0 mm 0.00 in0.0 mm 0.00 in0.0 mm
08:20 PM 71.9°F22.2°C 51.1°F10.6°C 48% 9.0 mph WSW14.5 kmh WSW 13.0 mph20.9 kmh 29.57 in1001.4 mb 0.00 in0.0 mm 0.00 in0.0 mm 0.00 in0.0 mm
08:25 PM 71.5°F21.9°C 51.3°F10.7°C 49% 6.0 mph WSW9.7 kmh WSW 13.0 mph20.9 kmh 29.57 in1001.4 mb 0.00 in0.0 mm 0.00 in0.0 mm 0.00 in0.0 mm
08:30 PM 71.2°F21.8°C 51.0°F10.6°C 49% 6.0 mph SW9.7 kmh SW 12.0 mph19.3 kmh 29.58 in1001.7 mb 0.00 in0.0 mm 0.00 in0.0 mm 0.00 in0.0 mm
08:35 PM 70.9°F21.6°C 51.3°F10.7°C 50% 6.0 mph SW9.7 kmh SW 12.0 mph19.3 kmh 29.58 in1001.7 mb 0.00 in0.0 mm 0.00 in0.0 mm 0.00 in0.0 mm
08:40 PM 70.6°F21.4°C 52.1°F11.2°C 52% 7.0 mph WSW11.3 kmh WSW 10.0 mph16.1 kmh 29.58 in1001.7 mb 0.00 in0.0 mm 0.00 in0.0 mm 0.00 in0.0 mm
08:45 PM 70.3°F21.3°C 52.3°F11.3°C 53% 8.0 mph WSW12.9 kmh WSW 10.0 mph16.1 kmh 29.59 in1002.0 mb 0.00 in0.0 mm 0.00 in0.0 mm 0.00 in0.0 mm
08:50 PM 69.9°F21.1°C 52.0°F11.1°C 53% 5.0 mph WSW8.0 kmh WSW 10.0 mph16.1 kmh 29.59 in1002.0 mb 0.00 in0.0 mm 0.00 in0.0 mm 0.00 in0.0 mm
08:55 PM 69.7°F20.9°C 52.3°F11.3°C 54% 6.0 mph WSW9.7 kmh WSW 10.0 mph16.1 kmh 29.59 in1002.0 mb 0.00 in0.0 mm 0.00 in0.0 mm 0.00 in0.0 mm
09:00 PM 69.5°F20.8°C 52.6°F11.4°C 55% 4.0 mph SW6.4 kmh SW 9.0 mph14.5 kmh 29.58 in1001.7 mb 0.00 in0.0 mm 0.00 in0.0 mm 0.00 in0.0 mm
09:05 PM 69.3°F20.7°C 52.9°F11.6°C 56% 5.0 mph SW8.0 kmh SW 9.0 mph14.5 kmh 29.58 in1001.7 mb 0.00 in0.0 mm 0.00 in0.0 mm 0.00 in0.0 mm
09:10 PM 69.0°F20.6°C 53.1°F11.7°C 57% 1.0 mph WSW1.6 kmh WSW 7.0 mph11.3 kmh 29.58 in1001.7 mb 0.00 in0.0 mm 0.00 in0.0 mm 0.00 in0.0 mm
09:15 PM 68.6°F20.3°C 53.2°F11.8°C 58% 2.0 mph WSW3.2 kmh WSW 7.0 mph11.3 kmh 29.57 in1001.4 mb 0.00 in0.0 mm 0.00 in0.0 mm 0.00 in0.0 mm
09:20 PM 68.3°F20.2°C 52.9°F11.6°C 58% 4.0 mph WSW6.4 kmh WSW 6.0 mph9.7 kmh 29.57 in1001.4 mb 0.00 in0.0 mm 0.00 in0.0 mm 0.00 in0.0 mm
09:25 PM 67.9°F19.9°C 53.0°F11.7°C 59% 4.0 mph SW6.4 kmh SW 7.0 mph11.3 kmh 29.57 in1001.4 mb 0.00 in0.0 mm 0.00 in0.0 mm 0.00 in0.0 mm
09:30 PM 67.6°F19.8°C 53.2°F11.8°C 60% 5.0 mph WSW8.0 kmh WSW 7.0 mph11.3 kmh 29.58 in1001.7 mb 0.00 in0.0 mm 0.00 in0.0 mm 0.00 in0.0 mm
09:35 PM 67.2°F19.6°C 53.3°F11.8°C 61% 4.0 mph WSW6.4 kmh WSW 7.0 mph11.3 kmh 29.58 in1001.7 mb 0.00 in0.0 mm 0.00 in0.0 mm 0.00 in0.0 mm
09:40 PM 67.0°F19.4°C 53.1°F11.7°C 61% 4.0 mph WSW6.4 kmh WSW 7.0 mph11.3 kmh 29.58 in1001.7 mb 0.00 in0.0 mm 0.00 in0.0 mm 0.00 in0.0 mm
09:45 PM 66.7°F19.3°C 53.3°F11.8°C 62% 3.0 mph WSW4.8 kmh WSW 6.0 mph9.7 kmh 29.58 in1001.7 mb 0.00 in0.0 mm 0.00 in0.0 mm 0.00 in0.0 mm
09:50 PM 66.4°F19.1°C 53.0°F11.7°C 62% 5.0 mph WSW8.0 kmh WSW 6.0 mph9.7 kmh 29.58 in1001.7 mb 0.00 in0.0 mm 0.00 in0.0 mm 0.00 in0.0 mm
09:55 PM 66.0°F18.9°C 53.5°F11.9°C 64% 5.0 mph WNW8.0 kmh WNW 7.0 mph11.3 kmh 29.58 in1001.7 mb 0.00 in0.0 mm 0.00 in0.0 mm 0.00 in0.0 mm
10:00 PM 65.6°F18.7°C 53.1°F11.7°C 64% 5.0 mph WNW8.0 kmh WNW 7.0 mph11.3 kmh 29.60 in1002.4 mb 0.00 in0.0 mm 0.00 in0.0 mm 0.00 in0.0 mm
10:05 PM 65.2°F18.4°C 53.1°F11.7°C 65% 6.0 mph WNW9.7 kmh WNW 7.0 mph11.3 kmh 29.60 in1002.4 mb 0.00 in0.0 mm 0.00 in0.0 mm 0.00 in0.0 mm
10:10 PM 65.0°F18.3°C 53.4°F11.9°C 66% 5.0 mph WNW8.0 kmh WNW 7.0 mph11.3 kmh 29.60 in1002.4 mb 0.00 in0.0 mm 0.00 in0.0 mm 0.00 in0.0 mm
10:15 PM 64.9°F18.3°C 53.7°F12.1°C 67% 5.0 mph W8.0 kmh W 6.0 mph9.7 kmh 29.59 in1002.0 mb 0.00 in0.0 mm 0.00 in0.0 mm 0.00 in0.0 mm
10:20 PM 64.8°F18.2°C 53.6°F12.0°C 67% 5.0 mph W8.0 kmh W 6.0 mph9.7 kmh 29.59 in1002.0 mb 0.00 in0.0 mm 0.00 in0.0 mm 0.00 in0.0 mm
10:25 PM 64.8°F18.2°C 53.6°F12.0°C 67% 4.0 mph W6.4 kmh W 6.0 mph9.7 kmh 29.59 in1002.0 mb 0.00 in0.0 mm 0.00 in0.0 mm 0.00 in0.0 mm
10:30 PM 64.8°F18.2°C 53.6°F12.0°C 67% 5.0 mph WSW8.0 kmh WSW 6.0 mph9.7 kmh 29.59 in1002.0 mb 0.00 in0.0 mm 0.00 in0.0 mm 0.00 in0.0 mm
10:35 PM 64.6°F18.1°C 53.4°F11.9°C 67% 3.0 mph WSW4.8 kmh WSW 6.0 mph9.7 kmh 29.59 in1002.0 mb 0.00 in0.0 mm 0.00 in0.0 mm 0.00 in0.0 mm
10:40 PM 64.5°F18.1°C 53.3°F11.8°C 67% 1.0 mph WSW1.6 kmh WSW 6.0 mph9.7 kmh 29.59 in1002.0 mb 0.00 in0.0 mm 0.00 in0.0 mm 0.00 in0.0 mm
10:45 PM 64.3°F17.9°C 53.5°F11.9°C 68% 4.0 mph SW6.4 kmh SW 8.0 mph12.9 kmh 29.60 in1002.4 mb 0.00 in0.0 mm 0.00 in0.0 mm 0.00 in0.0 mm
10:50 PM 64.1°F17.8°C 53.3°F11.8°C 68% 4.0 mph WSW6.4 kmh WSW 8.0 mph12.9 kmh 29.60 in1002.4 mb 0.00 in0.0 mm 0.00 in0.0 mm 0.00 in0.0 mm
10:55 PM 63.8°F17.7°C 53.4°F11.9°C 69% 3.0 mph WSW4.8 kmh WSW 8.0 mph12.9 kmh 29.60 in1002.4 mb 0.00 in0.0 mm 0.00 in0.0 mm 0.00 in0.0 mm
11:00 PM 63.6°F17.6°C 53.6°F12.0°C 70% 5.0 mph SW8.0 kmh SW 8.0 mph12.9 kmh 29.60 in1002.4 mb 0.00 in0.0 mm 0.00 in0.0 mm 0.00 in0.0 mm
11:05 PM 63.4°F17.4°C 53.4°F11.9°C 70% 4.0 mph SW6.4 kmh SW 7.0 mph11.3 kmh 29.60 in1002.4 mb 0.00 in0.0 mm 0.00 in0.0 mm 0.00 in0.0 mm
11:10 PM 63.1°F17.3°C 53.2°F11.8°C 70% 5.0 mph WSW8.0 kmh WSW 7.0 mph11.3 kmh 29.60 in1002.4 mb 0.00 in0.0 mm 0.00 in0.0 mm 0.00 in0.0 mm
11:15 PM 62.9°F17.2°C 53.3°F11.8°C 71% 4.0 mph WSW6.4 kmh WSW 6.0 mph9.7 kmh 29.59 in1002.0 mb 0.00 in0.0 mm 0.00 in0.0 mm 0.00 in0.0 mm
11:20 PM 62.5°F16.9°C 53.0°F11.7°C 71% 5.0 mph W8.0 kmh W 7.0 mph11.3 kmh 29.59 in1002.0 mb 0.00 in0.0 mm 0.00 in0.0 mm 0.00 in0.0 mm
11:25 PM 62.3°F16.8°C 53.2°F11.8°C 72% 4.0 mph W6.4 kmh W 7.0 mph11.3 kmh 29.59 in1002.0 mb 0.00 in0.0 mm 0.00 in0.0 mm 0.00 in0.0 mm
11:30 PM 62.1°F16.7°C 53.0°F11.7°C 72% 5.0 mph W8.0 kmh W 7.0 mph11.3 kmh 29.60 in1002.4 mb 0.00 in0.0 mm 0.00 in0.0 mm 0.00 in0.0 mm
11:35 PM 62.0°F16.7°C 52.9°F11.6°C 72% 1.0 mph W1.6 kmh W 7.0 mph11.3 kmh 29.60 in1002.4 mb 0.00 in0.0 mm 0.00 in0.0 mm 0.00 in0.0 mm
11:40 PM 61.9°F16.6°C 53.1°F11.7°C 73% 4.0 mph W6.4 kmh W 5.0 mph8.0 kmh 29.60 in1002.4 mb 0.00 in0.0 mm 0.00 in0.0 mm 0.00 in0.0 mm
11:45 PM 61.7°F16.5°C 53.0°F11.7°C 73% 5.0 mph WNW8.0 kmh WNW 6.0 mph9.7 kmh 29.60 in1002.4 mb 0.00 in0.0 mm 0.00 in0.0 mm 0.00 in0.0 mm
11:50 PM 61.6°F16.4°C 52.9°F11.6°C 73% 5.0 mph W8.0 kmh W 6.0 mph9.7 kmh 29.60 in1002.4 mb 0.00 in0.0 mm 0.00 in0.0 mm 0.00 in0.0 mm
11:55 PM 61.4°F16.3°C 52.7°F11.5°C 73% 4.0 mph W6.4 kmh W 6.0 mph9.7 kmh 29.60 in1002.4 mb 0.00 in0.0 mm 0.00 in0.0 mm 0.00 in0.0 mm